Arnett, Texas
Current Conditions -  °F | °C
As of 9:35 PM on Sunday 23 Nov 2014 (Local Time) from KGOP Reporting Station
Clear Clear  
Wind Chill: 55°   Ceiling: Unl
Heat Index: 55°   Visibility: 10mi
Dew Point: 37°   Wind: 18mph
Humidity: 51%   Direction: 340°NNW
Pressure: 29.82"   Gusts: 26mph
Location:  31.392°N, 97.7452°W
Report Text: KGOP 240335Z AUTO 34016G23KT 10SM CLR 13/03 A2982 RMK AO2 PWINO
Loading
Personal Weather Stations






























Interactive Weather Map New forecast layout! Learn more

10-Day Weather Forecast

Advertisements
Track Severe Weather on mobile